sensor_id;sensor_type;location;lat;lon;timestamp;P1;durP1;ratioP1;P2;durP2;ratioP2
12880;SDS011;6508;53.786;9.996;2023-03-01T00:01:04;13.17;;;10.47;;
12880;SDS011;6508;53.786;9.996;2023-03-01T00:03:35;15.80;;;11.23;;
12880;SDS011;6508;53.786;9.996;2023-03-01T00:06:03;13.40;;;10.73;;
12880;SDS011;6508;53.786;9.996;2023-03-01T00:08:32;12.57;;;10.93;;
12880;SDS011;6508;53.786;9.996;2023-03-01T00:11:01;13.37;;;10.73;;
12880;SDS011;6508;53.786;9.996;2023-03-01T00:13:31;13.40;;;10.77;;
12880;SDS011;6508;53.786;9.996;2023-03-01T00:16:01;12.40;;;10.90;;
12880;SDS011;6508;53.786;9.996;2023-03-01T00:18:29;16.50;;;11.10;;
12880;SDS011;6508;53.786;9.996;2023-03-01T00:20:58;13.60;;;10.93;;
12880;SDS011;6508;53.786;9.996;2023-03-01T00:23:26;13.63;;;11.20;;
12880;SDS011;6508;53.786;9.996;2023-03-01T00:25:54;15.17;;;11.10;;
12880;SDS011;6508;53.786;9.996;2023-03-01T00:28:22;13.80;;;10.90;;
12880;SDS011;6508;53.786;9.996;2023-03-01T00:30:50;14.93;;;10.73;;
12880;SDS011;6508;53.786;9.996;2023-03-01T00:33:18;12.40;;;10.17;;
12880;SDS011;6508;53.786;9.996;2023-03-01T00:35:46;13.13;;;10.67;;
12880;SDS011;6508;53.786;9.996;2023-03-01T00:38:16;13.30;;;10.53;;
12880;SDS011;6508;53.786;9.996;2023-03-01T00:40:43;13.57;;;10.33;;
12880;SDS011;6508;53.786;9.996;2023-03-01T00:43:11;10.67;;;9.57;;
12880;SDS011;6508;53.786;9.996;2023-03-01T00:45:40;10.63;;;9.50;;
12880;SDS011;6508;53.786;9.996;2023-03-01T00:48:07;13.33;;;9.53;;
12880;SDS011;6508;53.786;9.996;2023-03-01T00:50:35;15.33;;;10.80;;
12880;SDS011;6508;53.786;9.996;2023-03-01T00:53:03;12.70;;;10.53;;
12880;SDS011;6508;53.786;9.996;2023-03-01T00:55:33;13.13;;;10.50;;
12880;SDS011;6508;53.786;9.996;2023-03-01T00:58:01;12.00;;;10.13;;
12880;SDS011;6508;53.786;9.996;2023-03-01T01:00:28;13.13;;;10.33;;
12880;SDS011;6508;53.786;9.996;2023-03-01T01:02:56;14.57;;;10.83;;
12880;SDS011;6508;53.786;9.996;2023-03-01T01:05:24;13.43;;;10.03;;
12880;SDS011;6508;53.786;9.996;2023-03-01T01:07:52;13.47;;;10.77;;
12880;SDS011;6508;53.786;9.996;2023-03-01T01:10:20;13.67;;;11.33;;
12880;SDS011;6508;53.786;9.996;2023-03-01T01:12:49;14.03;;;11.20;;
12880;SDS011;6508;53.786;9.996;2023-03-01T01:15:16;15.10;;;10.90;;
12880;SDS011;6508;53.786;9.996;2023-03-01T01:17:44;14.40;;;11.87;;
12880;SDS011;6508;53.786;9.996;2023-03-01T01:20:12;15.00;;;11.30;;
12880;SDS011;6508;53.786;9.996;2023-03-01T01:22:40;13.70;;;11.63;;
12880;SDS011;6508;53.786;9.996;2023-03-01T01:25:08;13.93;;;11.67;;
12880;SDS011;6508;53.786;9.996;2023-03-01T01:27:36;14.27;;;11.50;;
12880;SDS011;6508;53.786;9.996;2023-03-01T01:30:06;19.57;;;13.43;;
12880;SDS011;6508;53.786;9.996;2023-03-01T01:32:35;14.50;;;11.53;;
12880;SDS011;6508;53.786;9.996;2023-03-01T01:35:03;15.53;;;11.67;;
12880;SDS011;6508;53.786;9.996;2023-03-01T01:37:31;15.53;;;12.77;;
12880;SDS011;6508;53.786;9.996;2023-03-01T01:40:00;15.80;;;12.07;;
12880;SDS011;6508;53.786;9.996;2023-03-01T01:42:30;15.97;;;12.00;;
12880;SDS011;6508;53.786;9.996;2023-03-01T01:48:01;15.20;;;11.80;;
12880;SDS011;6508;53.786;9.996;2023-03-01T01:50:31;16.60;;;11.73;;
12880;SDS011;6508;53.786;9.996;2023-03-01T01:53:05;16.83;;;12.30;;
12880;SDS011;6508;53.786;9.996;2023-03-01T01:55:34;15.97;;;11.80;;
12880;SDS011;6508;53.786;9.996;2023-03-01T01:58:04;15.80;;;11.23;;
12880;SDS011;6508;53.786;9.996;2023-03-01T02:00:34;15.47;;;11.93;;
12880;SDS011;6508;53.786;9.996;2023-03-01T02:03:03;16.33;;;12.17;;
12880;SDS011;6508;53.786;9.996;2023-03-01T02:05:36;16.83;;;11.47;;
12880;SDS011;6508;53.786;9.996;2023-03-01T02:08:06;13.87;;;11.03;;
12880;SDS011;6508;53.786;9.996;2023-03-01T02:10:35;13.73;;;11.13;;
12880;SDS011;6508;53.786;9.996;2023-03-01T02:13:04;11.80;;;10.60;;
12880;SDS011;6508;53.786;9.996;2023-03-01T02:15:32;15.43;;;11.70;;
12880;SDS011;6508;53.786;9.996;2023-03-01T02:18:02;16.23;;;12.17;;
12880;SDS011;6508;53.786;9.996;2023-03-01T02:20:33;12.87;;;11.07;;
12880;SDS011;6508;53.786;9.996;2023-03-01T02:23:02;14.43;;;11.67;;
12880;SDS011;6508;53.786;9.996;2023-03-01T02:25:35;13.53;;;11.97;;
12880;SDS011;6508;53.786;9.996;2023-03-01T02:28:09;14.60;;;12.60;;
12880;SDS011;6508;53.786;9.996;2023-03-01T02:30:40;16.03;;;12.27;;
12880;SDS011;6508;53.786;9.996;2023-03-01T02:33:28;17.50;;;12.47;;
12880;SDS011;6508;53.786;9.996;2023-03-01T02:36:00;20.20;;;13.70;;
12880;SDS011;6508;53.786;9.996;2023-03-01T02:38:28;16.30;;;13.00;;
12880;SDS011;6508;53.786;9.996;2023-03-01T02:40:57;16.13;;;13.53;;
12880;SDS011;6508;53.786;9.996;2023-03-01T02:43:27;16.57;;;13.73;;
12880;SDS011;6508;53.786;9.996;2023-03-01T02:45:59;19.47;;;14.37;;
12880;SDS011;6508;53.786;9.996;2023-03-01T02:48:38;17.63;;;14.40;;
12880;SDS011;6508;53.786;9.996;2023-03-01T02:51:11;18.53;;;15.33;;
12880;SDS011;6508;53.786;9.996;2023-03-01T02:53:48;16.63;;;14.10;;
12880;SDS011;6508;53.786;9.996;2023-03-01T02:56:20;21.10;;;15.10;;
12880;SDS011;6508;53.786;9.996;2023-03-01T02:58:48;18.87;;;14.33;;
12880;SDS011;6508;53.786;9.996;2023-03-01T03:01:20;18.83;;;15.73;;
12880;SDS011;6508;53.786;9.996;2023-03-01T03:03:48;17.37;;;14.60;;
12880;SDS011;6508;53.786;9.996;2023-03-01T03:06:16;19.33;;;14.27;;
12880;SDS011;6508;53.786;9.996;2023-03-01T03:08:44;19.03;;;14.90;;
12880;SDS011;6508;53.786;9.996;2023-03-01T03:11:12;18.47;;;13.77;;
12880;SDS011;6508;53.786;9.996;2023-03-01T03:13:40;16.10;;;13.67;;
12880;SDS011;6508;53.786;9.996;2023-03-01T03:16:14;18.13;;;13.93;;
12880;SDS011;6508;53.786;9.996;2023-03-01T03:18:44;18.33;;;14.27;;
12880;SDS011;6508;53.786;9.996;2023-03-01T03:21:11;18.20;;;13.77;;
12880;SDS011;6508;53.786;9.996;2023-03-01T03:23:39;18.93;;;13.83;;
12880;SDS011;6508;53.786;9.996;2023-03-01T03:26:07;18.67;;;13.83;;
12880;SDS011;6508;53.786;9.996;2023-03-01T03:28:36;18.33;;;13.20;;
12880;SDS011;6508;53.786;9.996;2023-03-01T03:31:06;16.07;;;12.33;;
12880;SDS011;6508;53.786;9.996;2023-03-01T03:33:34;21.67;;;13.37;;
12880;SDS011;6508;53.786;9.996;2023-03-01T03:36:04;17.93;;;13.50;;
12880;SDS011;6508;53.786;9.996;2023-03-01T03:38:33;20.73;;;14.00;;
12880;SDS011;6508;53.786;9.996;2023-03-01T03:41:01;21.87;;;15.17;;
12880;SDS011;6508;53.786;9.996;2023-03-01T03:43:30;18.47;;;14.57;;
12880;SDS011;6508;53.786;9.996;2023-03-01T03:45:59;19.90;;;14.80;;
12880;SDS011;6508;53.786;9.996;2023-03-01T03:48:35;21.00;;;15.03;;
12880;SDS011;6508;53.786;9.996;2023-03-01T03:51:05;20.20;;;14.20;;
12880;SDS011;6508;53.786;9.996;2023-03-01T03:53:33;18.87;;;15.30;;
12880;SDS011;6508;53.786;9.996;2023-03-01T03:56:01;23.97;;;15.67;;
12880;SDS011;6508;53.786;9.996;2023-03-01T03:58:31;22.77;;;16.47;;
12880;SDS011;6508;53.786;9.996;2023-03-01T04:00:59;27.47;;;18.07;;
12880;SDS011;6508;53.786;9.996;2023-03-01T04:03:28;23.63;;;17.27;;
12880;SDS011;6508;53.786;9.996;2023-03-01T04:05:58;23.73;;;16.63;;
12880;SDS011;6508;53.786;9.996;2023-03-01T04:08:27;24.20;;;16.23;;
12880;SDS011;6508;53.786;9.996;2023-03-01T04:10:59;23.10;;;16.90;;
12880;SDS011;6508;53.786;9.996;2023-03-01T04:13:50;24.10;;;17.40;;
12880;SDS011;6508;53.786;9.996;2023-03-01T04:16:18;27.13;;;18.47;;
12880;SDS011;6508;53.786;9.996;2023-03-01T04:18:46;32.27;;;18.40;;
12880;SDS011;6508;53.786;9.996;2023-03-01T04:21:14;26.77;;;17.73;;
12880;SDS011;6508;53.786;9.996;2023-03-01T04:23:43;26.43;;;18.00;;
12880;SDS011;6508;53.786;9.996;2023-03-01T04:26:10;31.63;;;21.10;;
12880;SDS011;6508;53.786;9.996;2023-03-01T04:28:39;29.40;;;18.73;;
12880;SDS011;6508;53.786;9.996;2023-03-01T04:31:10;30.13;;;18.40;;
12880;SDS011;6508;53.786;9.996;2023-03-01T04:33:43;28.93;;;19.60;;
12880;SDS011;6508;53.786;9.996;2023-03-01T04:36:12;31.37;;;20.73;;
12880;SDS011;6508;53.786;9.996;2023-03-01T04:38:43;31.43;;;20.20;;
12880;SDS011;6508;53.786;9.996;2023-03-01T04:41:14;28.53;;;20.07;;
12880;SDS011;6508;53.786;9.996;2023-03-01T04:43:42;26.73;;;19.33;;
12880;SDS011;6508;53.786;9.996;2023-03-01T04:46:11;28.37;;;20.30;;
12880;SDS011;6508;53.786;9.996;2023-03-01T04:48:41;30.47;;;20.17;;
12880;SDS011;6508;53.786;9.996;2023-03-01T04:51:11;29.43;;;20.63;;
12880;SDS011;6508;53.786;9.996;2023-03-01T04:53:39;33.20;;;20.27;;
12880;SDS011;6508;53.786;9.996;2023-03-01T04:56:09;30.53;;;20.07;;
12880;SDS011;6508;53.786;9.996;2023-03-01T04:58:37;27.00;;;19.00;;
12880;SDS011;6508;53.786;9.996;2023-03-01T05:01:08;29.03;;;19.20;;
12880;SDS011;6508;53.786;9.996;2023-03-01T05:03:41;29.43;;;19.00;;
12880;SDS011;6508;53.786;9.996;2023-03-01T05:06:11;29.83;;;19.83;;
12880;SDS011;6508;53.786;9.996;2023-03-01T05:08:39;28.80;;;19.40;;
12880;SDS011;6508;53.786;9.996;2023-03-01T05:11:08;29.00;;;18.77;;
12880;SDS011;6508;53.786;9.996;2023-03-01T05:13:37;30.33;;;18.87;;
12880;SDS011;6508;53.786;9.996;2023-03-01T05:16:06;31.53;;;18.03;;
12880;SDS011;6508;53.786;9.996;2023-03-01T05:18:37;27.90;;;18.80;;
12880;SDS011;6508;53.786;9.996;2023-03-01T05:21:06;27.77;;;19.17;;
12880;SDS011;6508;53.786;9.996;2023-03-01T05:23:35;28.93;;;19.50;;
12880;SDS011;6508;53.786;9.996;2023-03-01T05:26:03;27.17;;;18.40;;
12880;SDS011;6508;53.786;9.996;2023-03-01T05:28:38;34.50;;;20.17;;
12880;SDS011;6508;53.786;9.996;2023-03-01T05:31:06;29.30;;;20.13;;
12880;SDS011;6508;53.786;9.996;2023-03-01T05:33:36;29.47;;;19.03;;
12880;SDS011;6508;53.786;9.996;2023-03-01T05:36:04;27.33;;;18.37;;
12880;SDS011;6508;53.786;9.996;2023-03-01T05:38:33;28.50;;;18.10;;
12880;SDS011;6508;53.786;9.996;2023-03-01T05:41:01;29.37;;;17.43;;
12880;SDS011;6508;53.786;9.996;2023-03-01T05:43:30;27.87;;;18.07;;
12880;SDS011;6508;53.786;9.996;2023-03-01T05:46:01;28.67;;;18.67;;
12880;SDS011;6508;53.786;9.996;2023-03-01T05:48:29;29.20;;;18.37;;
12880;SDS011;6508;53.786;9.996;2023-03-01T05:50:58;31.70;;;17.63;;
12880;SDS011;6508;53.786;9.996;2023-03-01T05:53:27;26.53;;;18.67;;
12880;SDS011;6508;53.786;9.996;2023-03-01T05:55:54;27.33;;;18.03;;
12880;SDS011;6508;53.786;9.996;2023-03-01T05:58:22;29.00;;;18.10;;
12880;SDS011;6508;53.786;9.996;2023-03-01T06:00:50;27.40;;;18.17;;
12880;SDS011;6508;53.786;9.996;2023-03-01T06:03:22;27.00;;;17.93;;
12880;SDS011;6508;53.786;9.996;2023-03-01T06:05:49;29.17;;;17.93;;
12880;SDS011;6508;53.786;9.996;2023-03-01T06:08:23;30.30;;;19.67;;
12880;SDS011;6508;53.786;9.996;2023-03-01T06:10:53;30.93;;;20.67;;
12880;SDS011;6508;53.786;9.996;2023-03-01T06:13:20;33.37;;;21.73;;
12880;SDS011;6508;53.786;9.996;2023-03-01T06:15:50;33.10;;;23.13;;
12880;SDS011;6508;53.786;9.996;2023-03-01T06:18:18;32.87;;;23.73;;
12880;SDS011;6508;53.786;9.996;2023-03-01T06:20:51;35.10;;;23.43;;
12880;SDS011;6508;53.786;9.996;2023-03-01T06:23:20;34.03;;;24.53;;
12880;SDS011;6508;53.786;9.996;2023-03-01T06:25:47;36.53;;;24.83;;
12880;SDS011;6508;53.786;9.996;2023-03-01T06:28:15;42.33;;;25.23;;
12880;SDS011;6508;53.786;9.996;2023-03-01T06:30:43;42.40;;;27.07;;
12880;SDS011;6508;53.786;9.996;2023-03-01T06:33:11;43.13;;;28.90;;
12880;SDS011;6508;53.786;9.996;2023-03-01T06:35:39;51.13;;;30.00;;
12880;SDS011;6508;53.786;9.996;2023-03-01T06:38:08;53.17;;;33.43;;
12880;SDS011;6508;53.786;9.996;2023-03-01T06:40:36;58.57;;;35.40;;
12880;SDS011;6508;53.786;9.996;2023-03-01T06:43:04;58.50;;;34.03;;
12880;SDS011;6508;53.786;9.996;2023-03-01T06:45:33;50.37;;;32.83;;
12880;SDS011;6508;53.786;9.996;2023-03-01T06:48:02;49.37;;;32.03;;
12880;SDS011;6508;53.786;9.996;2023-03-01T06:50:31;52.03;;;30.17;;
12880;SDS011;6508;53.786;9.996;2023-03-01T06:52:59;48.67;;;30.30;;
12880;SDS011;6508;53.786;9.996;2023-03-01T06:55:28;51.97;;;31.03;;
12880;SDS011;6508;53.786;9.996;2023-03-01T06:57:55;49.10;;;30.00;;
12880;SDS011;6508;53.786;9.996;2023-03-01T07:00:24;48.33;;;30.13;;
12880;SDS011;6508;53.786;9.996;2023-03-01T07:02:52;45.73;;;27.97;;
12880;SDS011;6508;53.786;9.996;2023-03-01T07:05:20;45.23;;;28.23;;
12880;SDS011;6508;53.786;9.996;2023-03-01T07:07:48;44.50;;;29.03;;
12880;SDS011;6508;53.786;9.996;2023-03-01T07:10:16;46.10;;;29.90;;
12880;SDS011;6508;53.786;9.996;2023-03-01T07:12:45;47.83;;;29.23;;
12880;SDS011;6508;53.786;9.996;2023-03-01T07:15:13;49.20;;;28.50;;
12880;SDS011;6508;53.786;9.996;2023-03-01T07:17:41;47.40;;;28.93;;
12880;SDS011;6508;53.786;9.996;2023-03-01T07:20:11;47.33;;;28.70;;
12880;SDS011;6508;53.786;9.996;2023-03-01T07:22:39;46.67;;;28.90;;
12880;SDS011;6508;53.786;9.996;2023-03-01T07:25:08;45.60;;;28.23;;
12880;SDS011;6508;53.786;9.996;2023-03-01T07:27:37;43.23;;;28.07;;
12880;SDS011;6508;53.786;9.996;2023-03-01T07:30:07;39.63;;;26.67;;
12880;SDS011;6508;53.786;9.996;2023-03-01T07:32:36;45.87;;;27.83;;
12880;SDS011;6508;53.786;9.996;2023-03-01T07:35:04;42.63;;;27.43;;
12880;SDS011;6508;53.786;9.996;2023-03-01T07:37:32;45.57;;;27.50;;
12880;SDS011;6508;53.786;9.996;2023-03-01T07:40:00;41.07;;;26.47;;
12880;SDS011;6508;53.786;9.996;2023-03-01T07:42:28;43.93;;;26.43;;
12880;SDS011;6508;53.786;9.996;2023-03-01T07:44:56;44.20;;;26.47;;
12880;SDS011;6508;53.786;9.996;2023-03-01T07:47:25;34.87;;;24.43;;
12880;SDS011;6508;53.786;9.996;2023-03-01T07:49:53;43.43;;;26.87;;
12880;SDS011;6508;53.786;9.996;2023-03-01T07:52:20;42.57;;;25.37;;
12880;SDS011;6508;53.786;9.996;2023-03-01T07:54:48;39.87;;;26.00;;
12880;SDS011;6508;53.786;9.996;2023-03-01T07:57:16;40.90;;;26.07;;
12880;SDS011;6508;53.786;9.996;2023-03-01T07:59:44;38.33;;;24.80;;
12880;SDS011;6508;53.786;9.996;2023-03-01T08:02:11;46.03;;;26.47;;
12880;SDS011;6508;53.786;9.996;2023-03-01T08:04:43;49.03;;;27.27;;
12880;SDS011;6508;53.786;9.996;2023-03-01T08:07:10;43.47;;;25.83;;
12880;SDS011;6508;53.786;9.996;2023-03-01T08:09:38;46.53;;;26.10;;
12880;SDS011;6508;53.786;9.996;2023-03-01T08:12:06;47.03;;;27.57;;
12880;SDS011;6508;53.786;9.996;2023-03-01T08:14:33;42.43;;;26.93;;
12880;SDS011;6508;53.786;9.996;2023-03-01T08:17:01;45.27;;;26.80;;
12880;SDS011;6508;53.786;9.996;2023-03-01T08:19:30;46.63;;;25.10;;
12880;SDS011;6508;53.786;9.996;2023-03-01T08:21:59;47.07;;;26.03;;
12880;SDS011;6508;53.786;9.996;2023-03-01T08:24:27;43.37;;;26.27;;
12880;SDS011;6508;53.786;9.996;2023-03-01T08:26:55;47.10;;;27.60;;
12880;SDS011;6508;53.786;9.996;2023-03-01T08:29:23;44.17;;;25.90;;
12880;SDS011;6508;53.786;9.996;2023-03-01T08:31:51;50.57;;;24.93;;
12880;SDS011;6508;53.786;9.996;2023-03-01T08:34:19;43.03;;;23.27;;
12880;SDS011;6508;53.786;9.996;2023-03-01T08:36:47;44.03;;;24.37;;
12880;SDS011;6508;53.786;9.996;2023-03-01T08:39:18;45.63;;;22.33;;
12880;SDS011;6508;53.786;9.996;2023-03-01T08:41:47;43.33;;;21.07;;
12880;SDS011;6508;53.786;9.996;2023-03-01T08:44:15;46.77;;;21.03;;
12880;SDS011;6508;53.786;9.996;2023-03-01T08:46:44;45.93;;;20.43;;
12880;SDS011;6508;53.786;9.996;2023-03-01T08:49:14;38.17;;;18.87;;
12880;SDS011;6508;53.786;9.996;2023-03-01T08:51:42;43.27;;;19.77;;
12880;SDS011;6508;53.786;9.996;2023-03-01T08:54:11;40.57;;;18.90;;
12880;SDS011;6508;53.786;9.996;2023-03-01T08:56:42;33.40;;;16.27;;
12880;SDS011;6508;53.786;9.996;2023-03-01T08:59:10;39.83;;;17.03;;
12880;SDS011;6508;53.786;9.996;2023-03-01T09:01:38;32.67;;;17.03;;
12880;SDS011;6508;53.786;9.996;2023-03-01T09:04:09;33.47;;;15.93;;
12880;SDS011;6508;53.786;9.996;2023-03-01T09:06:37;32.90;;;15.70;;
12880;SDS011;6508;53.786;9.996;2023-03-01T09:09:05;33.27;;;16.10;;
12880;SDS011;6508;53.786;9.996;2023-03-01T09:11:35;35.27;;;16.07;;
12880;SDS011;6508;53.786;9.996;2023-03-01T09:14:06;33.03;;;14.77;;
12880;SDS011;6508;53.786;9.996;2023-03-01T09:16:33;31.23;;;14.83;;
12880;SDS011;6508;53.786;9.996;2023-03-01T09:19:02;29.90;;;15.17;;
12880;SDS011;6508;53.786;9.996;2023-03-01T09:21:31;37.23;;;15.07;;
12880;SDS011;6508;53.786;9.996;2023-03-01T09:24:05;36.90;;;14.13;;
12880;SDS011;6508;53.786;9.996;2023-03-01T09:26:33;30.87;;;14.73;;
12880;SDS011;6508;53.786;9.996;2023-03-01T09:29:01;29.77;;;13.57;;
12880;SDS011;6508;53.786;9.996;2023-03-01T09:31:31;33.33;;;13.43;;
12880;SDS011;6508;53.786;9.996;2023-03-01T09:33:58;27.37;;;14.53;;
12880;SDS011;6508;53.786;9.996;2023-03-01T09:36:26;26.93;;;13.80;;
12880;SDS011;6508;53.786;9.996;2023-03-01T09:38:55;28.07;;;14.23;;
12880;SDS011;6508;53.786;9.996;2023-03-01T09:41:29;26.83;;;13.73;;
12880;SDS011;6508;53.786;9.996;2023-03-01T09:44:07;32.10;;;14.77;;
12880;SDS011;6508;53.786;9.996;2023-03-01T09:46:41;29.33;;;14.40;;
12880;SDS011;6508;53.786;9.996;2023-03-01T09:49:11;28.17;;;13.70;;
12880;SDS011;6508;53.786;9.996;2023-03-01T09:51:48;27.13;;;13.27;;
12880;SDS011;6508;53.786;9.996;2023-03-01T09:54:22;25.65;;;13.45;;
12880;SDS011;6508;53.786;9.996;2023-03-01T09:57:04;22.67;;;12.60;;
12880;SDS011;6508;53.786;9.996;2023-03-01T09:59:37;21.48;;;11.68;;
12880;SDS011;6508;53.786;9.996;2023-03-01T10:02:23;20.48;;;11.38;;
12880;SDS011;6508;53.786;9.996;2023-03-01T10:04:54;19.33;;;11.38;;
12880;SDS011;6508;53.786;9.996;2023-03-01T10:07:27;21.25;;;11.88;;
12880;SDS011;6508;53.786;9.996;2023-03-01T10:09:57;17.67;;;9.43;;
12880;SDS011;6508;53.786;9.996;2023-03-01T10:12:27;16.98;;;9.88;;
12880;SDS011;6508;53.786;9.996;2023-03-01T10:15:02;15.82;;;9.52;;
12880;SDS011;6508;53.786;9.996;2023-03-01T10:17:36;17.17;;;10.82;;
12880;SDS011;6508;53.786;9.996;2023-03-01T10:20:16;19.87;;;10.23;;
12880;SDS011;6508;53.786;9.996;2023-03-01T10:22:47;18.30;;;9.40;;
12880;SDS011;6508;53.786;9.996;2023-03-01T10:25:24;13.43;;;8.73;;
12880;SDS011;6508;53.786;9.996;2023-03-01T10:28:05;17.17;;;10.27;;
12880;SDS011;6508;53.786;9.996;2023-03-01T10:30:38;17.55;;;10.05;;
12880;SDS011;6508;53.786;9.996;2023-03-01T10:33:11;16.15;;;10.20;;
12880;SDS011;6508;53.786;9.996;2023-03-01T10:35:43;14.32;;;9.60;;
12880;SDS011;6508;53.786;9.996;2023-03-01T10:38:11;12.77;;;10.18;;
12880;SDS011;6508;53.786;9.996;2023-03-01T10:40:49;13.63;;;9.02;;
12880;SDS011;6508;53.786;9.996;2023-03-01T10:43:18;13.77;;;9.18;;
12880;SDS011;6508;53.786;9.996;2023-03-01T10:45:47;15.15;;;9.32;;
12880;SDS011;6508;53.786;9.996;2023-03-01T10:48:16;13.18;;;9.23;;
12880;SDS011;6508;53.786;9.996;2023-03-01T10:50:50;12.65;;;9.18;;
12880;SDS011;6508;53.786;9.996;2023-03-01T10:53:20;13.38;;;8.95;;
12880;SDS011;6508;53.786;9.996;2023-03-01T10:55:56;12.18;;;8.93;;
12880;SDS011;6508;53.786;9.996;2023-03-01T10:58:24;12.23;;;8.93;;
12880;SDS011;6508;53.786;9.996;2023-03-01T11:00:53;12.95;;;8.40;;
12880;SDS011;6508;53.786;9.996;2023-03-01T11:03:24;12.70;;;8.50;;
12880;SDS011;6508;53.786;9.996;2023-03-01T11:06:02;14.25;;;8.85;;
12880;SDS011;6508;53.786;9.996;2023-03-01T11:08:36;9.90;;;8.02;;
12880;SDS011;6508;53.786;9.996;2023-03-01T11:13:55;12.70;;;8.50;;
12880;SDS011;6508;53.786;9.996;2023-03-01T11:16:24;10.95;;;7.88;;
12880;SDS011;6508;53.786;9.996;2023-03-01T11:19:00;10.68;;;7.88;;
12880;SDS011;6508;53.786;9.996;2023-03-01T11:21:32;9.00;;;7.25;;
12880;SDS011;6508;53.786;9.996;2023-03-01T11:24:01;9.23;;;7.47;;
12880;SDS011;6508;53.786;9.996;2023-03-01T11:26:29;11.25;;;9.00;;
12880;SDS011;6508;53.786;9.996;2023-03-01T11:29:00;10.93;;;8.13;;
12880;SDS011;6508;53.786;9.996;2023-03-01T11:31:31;11.20;;;7.75;;
12880;SDS011;6508;53.786;9.996;2023-03-01T11:34:02;13.43;;;8.57;;
12880;SDS011;6508;53.786;9.996;2023-03-01T11:36:34;9.30;;;7.75;;
12880;SDS011;6508;53.786;9.996;2023-03-01T11:39:05;9.60;;;7.45;;
12880;SDS011;6508;53.786;9.996;2023-03-01T11:41:43;11.20;;;8.27;;
12880;SDS011;6508;53.786;9.996;2023-03-01T11:44:16;11.52;;;8.82;;
12880;SDS011;6508;53.786;9.996;2023-03-01T11:47:07;11.18;;;8.40;;
12880;SDS011;6508;53.786;9.996;2023-03-01T11:49:49;12.93;;;8.75;;
12880;SDS011;6508;53.786;9.996;2023-03-01T11:52:30;12.70;;;8.75;;
12880;SDS011;6508;53.786;9.996;2023-03-01T11:55:08;11.57;;;8.77;;
12880;SDS011;6508;53.786;9.996;2023-03-01T11:57:47;12.40;;;8.25;;
12880;SDS011;6508;53.786;9.996;2023-03-01T12:00:33;8.82;;;8.02;;
12880;SDS011;6508;53.786;9.996;2023-03-01T12:03:16;10.30;;;7.57;;
12880;SDS011;6508;53.786;9.996;2023-03-01T12:09:01;8.05;;;7.25;;
12880;SDS011;6508;53.786;9.996;2023-03-01T12:11:38;8.38;;;7.28;;
12880;SDS011;6508;53.786;9.996;2023-03-01T12:14:17;7.72;;;7.13;;
12880;SDS011;6508;53.786;9.996;2023-03-01T12:16:57;9.52;;;8.60;;
12880;SDS011;6508;53.786;9.996;2023-03-01T12:19:46;8.90;;;7.45;;
12880;SDS011;6508;53.786;9.996;2023-03-01T12:22:30;9.27;;;7.03;;
12880;SDS011;6508;53.786;9.996;2023-03-01T12:25:03;8.05;;;7.30;;
12880;SDS011;6508;53.786;9.996;2023-03-01T12:27:43;7.13;;;6.43;;
12880;SDS011;6508;53.786;9.996;2023-03-01T12:30:25;7.70;;;7.00;;
12880;SDS011;6508;53.786;9.996;2023-03-01T12:33:01;8.10;;;6.90;;
12880;SDS011;6508;53.786;9.996;2023-03-01T12:38:37;8.65;;;7.53;;
12880;SDS011;6508;53.786;9.996;2023-03-01T12:44:24;9.00;;;7.95;;
12880;SDS011;6508;53.786;9.996;2023-03-01T12:47:02;8.77;;;7.85;;
12880;SDS011;6508;53.786;9.996;2023-03-01T12:49:36;8.15;;;7.35;;
12880;SDS011;6508;53.786;9.996;2023-03-01T12:52:10;8.10;;;7.40;;
12880;SDS011;6508;53.786;9.996;2023-03-01T12:54:41;8.45;;;7.65;;
12880;SDS011;6508;53.786;9.996;2023-03-01T12:57:11;9.32;;;6.80;;
12880;SDS011;6508;53.786;9.996;2023-03-01T12:59:44;8.10;;;7.35;;
12880;SDS011;6508;53.786;9.996;2023-03-01T13:02:21;7.65;;;6.78;;
12880;SDS011;6508;53.786;9.996;2023-03-01T13:04:53;7.35;;;6.63;;
12880;SDS011;6508;53.786;9.996;2023-03-01T13:07:30;8.75;;;6.90;;
12880;SDS011;6508;53.786;9.996;2023-03-01T13:10:11;8.32;;;7.53;;
12880;SDS011;6508;53.786;9.996;2023-03-01T13:12:47;9.93;;;8.23;;
12880;SDS011;6508;53.786;9.996;2023-03-01T13:15:25;10.50;;;9.40;;
12880;SDS011;6508;53.786;9.996;2023-03-01T13:17:54;9.63;;;8.57;;
12880;SDS011;6508;53.786;9.996;2023-03-01T13:20:24;8.80;;;7.93;;
12880;SDS011;6508;53.786;9.996;2023-03-01T13:23:01;9.35;;;8.10;;
12880;SDS011;6508;53.786;9.996;2023-03-01T13:25:32;9.00;;;7.32;;
12880;SDS011;6508;53.786;9.996;2023-03-01T13:34:39;9.57;;;8.57;;
12880;SDS011;6508;53.786;9.996;2023-03-01T13:37:09;9.65;;;8.75;;
12880;SDS011;6508;53.786;9.996;2023-03-01T13:39:39;9.70;;;8.60;;
12880;SDS011;6508;53.786;9.996;2023-03-01T13:45:04;9.52;;;8.43;;
12880;SDS011;6508;53.786;9.996;2023-03-01T13:47:41;9.80;;;7.60;;
12880;SDS011;6508;53.786;9.996;2023-03-01T13:50:16;8.52;;;7.45;;
12880;SDS011;6508;53.786;9.996;2023-03-01T13:52:48;8.23;;;7.43;;
12880;SDS011;6508;53.786;9.996;2023-03-01T13:55:18;8.13;;;7.38;;
12880;SDS011;6508;53.786;9.996;2023-03-01T13:57:51;8.10;;;7.30;;
12880;SDS011;6508;53.786;9.996;2023-03-01T14:00:27;8.27;;;7.13;;
12880;SDS011;6508;53.786;9.996;2023-03-01T14:03:08;8.50;;;7.20;;
12880;SDS011;6508;53.786;9.996;2023-03-01T14:05:38;7.60;;;6.90;;
12880;SDS011;6508;53.786;9.996;2023-03-01T14:08:18;7.57;;;6.78;;
12880;SDS011;6508;53.786;9.996;2023-03-01T14:11:03;8.57;;;7.78;;
12880;SDS011;6508;53.786;9.996;2023-03-01T14:13:58;8.02;;;7.22;;
12880;SDS011;6508;53.786;9.996;2023-03-01T14:16:35;8.25;;;7.32;;
12880;SDS011;6508;53.786;9.996;2023-03-01T14:19:15;8.52;;;7.40;;
12880;SDS011;6508;53.786;9.996;2023-03-01T14:21:58;9.00;;;8.10;;
12880;SDS011;6508;53.786;9.996;2023-03-01T14:24:31;7.70;;;7.00;;
12880;SDS011;6508;53.786;9.996;2023-03-01T14:27:00;7.63;;;7.03;;
12880;SDS011;6508;53.786;9.996;2023-03-01T14:29:34;7.55;;;6.93;;
12880;SDS011;6508;53.786;9.996;2023-03-01T14:32:17;7.53;;;6.90;;
12880;SDS011;6508;53.786;9.996;2023-03-01T14:34:48;8.20;;;7.40;;
12880;SDS011;6508;53.786;9.996;2023-03-01T14:37:18;7.97;;;7.35;;
12880;SDS011;6508;53.786;9.996;2023-03-01T14:39:48;7.75;;;6.95;;
12880;SDS011;6508;53.786;9.996;2023-03-01T14:42:16;7.40;;;6.68;;
12880;SDS011;6508;53.786;9.996;2023-03-01T14:44:47;9.75;;;7.28;;
12880;SDS011;6508;53.786;9.996;2023-03-01T14:47:19;8.07;;;7.35;;
12880;SDS011;6508;53.786;9.996;2023-03-01T14:49:54;7.65;;;6.97;;
12880;SDS011;6508;53.786;9.996;2023-03-01T14:52:25;7.50;;;6.80;;
12880;SDS011;6508;53.786;9.996;2023-03-01T14:55:00;9.60;;;6.97;;
12880;SDS011;6508;53.786;9.996;2023-03-01T14:57:30;8.05;;;7.35;;
12880;SDS011;6508;53.786;9.996;2023-03-01T15:00:00;7.70;;;6.97;;
12880;SDS011;6508;53.786;9.996;2023-03-01T15:02:31;7.70;;;7.10;;
12880;SDS011;6508;53.786;9.996;2023-03-01T15:05:00;8.05;;;7.25;;
12880;SDS011;6508;53.786;9.996;2023-03-01T15:07:34;7.25;;;6.65;;
12880;SDS011;6508;53.786;9.996;2023-03-01T15:10:04;7.43;;;6.82;;
12880;SDS011;6508;53.786;9.996;2023-03-01T15:12:37;7.60;;;6.43;;
12880;SDS011;6508;53.786;9.996;2023-03-01T15:18:03;8.27;;;7.45;;
12880;SDS011;6508;53.786;9.996;2023-03-01T15:20:32;8.88;;;8.07;;
12880;SDS011;6508;53.786;9.996;2023-03-01T15:23:02;8.27;;;7.32;;
12880;SDS011;6508;53.786;9.996;2023-03-01T15:25:31;8.82;;;6.80;;
12880;SDS011;6508;53.786;9.996;2023-03-01T15:28:00;8.68;;;7.88;;
12880;SDS011;6508;53.786;9.996;2023-03-01T15:30:30;9.25;;;7.57;;